Time;durP1;ratioP1;P1;durP2;ratioP2;P2;SDS_P1;SDS_P2;PMS_P1;PMS_P2;Temp;Humidity;BMP_temperature;BMP_pressure;BME280_temperature;BME280_humidity;BME280_pressure;Samples;Min_cycle;Max_cycle;Signal;HPM_P1;HPM_P2
2023/01/28 00:01:13;;;;;;;3.30;2.60;;;1.10;99.90;;;;;;5032163;28;20183;-79
2023/01/28 00:03:39;;;;;;;3.93;2.80;;;1.10;99.90;;;;;;5032726;28;20184;-78
2023/01/28 00:06:13;;;;;;;4.03;2.87;;;1.10;99.90;;;;;;5033605;28;20688;-79
2023/01/28 00:08:39;;;;;;;3.97;3.33;;;1.10;99.90;;;;;;5032244;28;20669;-79
2023/01/28 00:11:07;;;;;;;3.60;2.80;;;1.10;99.90;;;;;;5033379;28;20285;-80
2023/01/28 00:13:33;;;;;;;3.73;2.77;;;1.10;99.90;;;;;;5032154;28;20170;-79
2023/01/28 00:16:01;;;;;;;2.87;2.53;;;1.10;99.90;;;;;;5032076;28;20287;-79
2023/01/28 00:18:28;;;;;;;3.17;2.87;;;1.00;99.90;;;;;;5031993;28;20174;-79
2023/01/28 00:21:01;;;;;;;3.30;3.00;;;1.10;99.90;;;;;;5031794;28;20174;-79
2023/01/28 00:23:32;;;;;;;6.57;2.90;;;1.00;99.90;;;;;;5032205;28;20656;-79
2023/01/28 00:25:59;;;;;;;3.40;2.90;;;1.00;99.90;;;;;;5033082;28;20202;-80
2023/01/28 00:28:24;;;;;;;4.20;3.20;;;1.00;99.90;;;;;;5031689;28;20270;-79
2023/01/28 00:30:50;;;;;;;5.07;3.00;;;1.00;99.90;;;;;;5031640;28;20261;-79
2023/01/28 00:33:16;;;;;;;3.90;3.00;;;1.00;99.90;;;;;;5032095;28;20232;-80
2023/01/28 00:35:41;;;;;;;4.53;3.43;;;1.00;99.90;;;;;;5031918;28;20736;-79
2023/01/28 00:38:07;;;;;;;3.67;3.13;;;1.10;99.90;;;;;;5031847;28;20696;-80
2023/01/28 00:40:34;;;;;;;4.03;3.50;;;1.10;99.90;;;;;;5031399;28;20244;-79
2023/01/28 00:42:59;;;;;;;3.43;3.13;;;1.00;99.90;;;;;;5033360;28;20167;-79
2023/01/28 00:45:25;;;;;;;4.37;3.30;;;1.00;99.90;;;;;;5031934;28;20228;-79
2023/01/28 00:47:50;;;;;;;3.23;2.87;;;1.00;99.90;;;;;;5033062;28;20305;-79
2023/01/28 00:50:16;;;;;;;5.13;3.30;;;1.10;99.90;;;;;;5031658;28;20193;-79
2023/01/28 00:52:42;;;;;;;4.97;3.30;;;1.10;99.90;;;;;;5031503;28;20193;-79
2023/01/28 00:55:07;;;;;;;5.23;3.30;;;1.10;99.90;;;;;;5032579;28;20205;-80
2023/01/28 00:57:33;;;;;;;4.47;3.47;;;1.10;99.90;;;;;;5033380;28;20236;-80
2023/01/28 00:59:59;;;;;;;3.93;3.43;;;1.10;99.90;;;;;;5033001;28;20194;-80
2023/01/28 01:02:24;;;;;;;5.50;3.20;;;1.10;99.90;;;;;;5033098;28;20252;-79
2023/01/28 01:04:59;;;;;;;3.63;3.13;;;1.00;99.90;;;;;;5032729;28;20209;-79
2023/01/28 01:07:40;;;;;;;3.63;3.30;;;1.00;99.90;;;;;;5031684;28;20177;-79
2023/01/28 01:10:08;;;;;;;4.67;3.20;;;0.90;99.90;;;;;;5032587;28;20186;-79
2023/01/28 01:12:34;;;;;;;5.43;3.60;;;0.90;99.90;;;;;;5033204;28;20174;-80
2023/01/28 01:14:59;;;;;;;4.53;3.23;;;0.90;99.90;;;;;;5032151;28;20181;-79
2023/01/28 01:17:25;;;;;;;4.23;3.03;;;1.00;99.90;;;;;;5032978;28;20178;-80
2023/01/28 01:19:50;;;;;;;4.23;3.00;;;1.00;99.90;;;;;;5032467;28;20570;-79
2023/01/28 01:22:16;;;;;;;3.57;3.10;;;1.00;99.90;;;;;;5031820;28;20236;-79
2023/01/28 01:24:41;;;;;;;4.03;3.60;;;0.90;99.90;;;;;;5031715;28;20224;-78
2023/01/28 01:27:07;;;;;;;4.40;3.50;;;0.90;99.90;;;;;;5031096;28;20174;-79
2023/01/28 01:29:33;;;;;;;4.50;3.50;;;0.90;99.90;;;;;;5031178;28;20190;-79
2023/01/28 01:31:59;;;;;;;4.63;3.80;;;0.90;99.90;;;;;;5030702;28;20167;-79
2023/01/28 01:34:24;;;;;;;5.63;3.83;;;0.90;99.90;;;;;;5032103;28;20177;-79
2023/01/28 01:36:50;;;;;;;4.83;3.70;;;0.90;99.90;;;;;;5031220;28;20586;-80
2023/01/28 01:39:16;;;;;;;5.10;3.93;;;0.80;99.90;;;;;;5030999;28;20260;-79
2023/01/28 01:41:42;;;;;;;6.67;3.90;;;0.80;99.90;;;;;;5031628;28;20178;-79
2023/01/28 01:44:46;;;;;;;5.83;3.73;;;0.80;99.90;;;;;;5031925;28;20684;-78
2023/01/28 01:47:13;;;;;;;6.33;4.27;;;0.80;99.90;;;;;;5030685;28;20174;-78
2023/01/28 01:49:39;;;;;;;4.20;3.43;;;0.80;99.90;;;;;;5032012;28;20539;-78
2023/01/28 01:52:17;;;;;;;6.63;3.83;;;0.90;99.90;;;;;;5030676;28;20198;-79
2023/01/28 01:54:49;;;;;;;5.87;4.20;;;0.80;99.90;;;;;;5031923;28;20653;-79
2023/01/28 01:57:23;;;;;;;6.07;4.33;;;0.80;99.90;;;;;;5030768;28;20202;-79
2023/01/28 01:59:48;;;;;;;6.63;4.20;;;0.80;99.90;;;;;;5030519;28;20194;-79
2023/01/28 02:02:14;;;;;;;6.60;4.73;;;0.70;99.90;;;;;;5030717;28;20185;-79
2023/01/28 02:04:43;;;;;;;7.33;4.77;;;0.80;99.90;;;;;;5031737;28;20564;-79
2023/01/28 02:07:11;;;;;;;6.43;4.53;;;0.80;99.90;;;;;;5031794;28;20181;-78
2023/01/28 02:09:40;;;;;;;5.70;4.47;;;0.80;99.90;;;;;;5031434;28;20197;-78
2023/01/28 02:12:07;;;;;;;4.97;4.37;;;0.80;99.90;;;;;;5031700;28;20644;-79
2023/01/28 02:14:37;;;;;;;5.50;4.80;;;0.80;99.90;;;;;;5030535;28;20185;-79
2023/01/28 02:17:03;;;;;;;5.57;4.20;;;0.80;99.90;;;;;;5030528;28;20179;-79
2023/01/28 02:19:39;;;;;;;6.87;4.87;;;0.80;99.90;;;;;;5031773;28;20274;-79
2023/01/28 02:22:30;;;;;;;6.17;4.63;;;0.80;99.90;;;;;;5030287;28;20323;-79
2023/01/28 02:25:16;;;;;;;7.87;4.97;;;0.80;99.90;;;;;;5020520;28;20703;-79
2023/01/28 02:28:13;;;;;;;6.70;4.93;;;0.80;99.90;;;;;;5030751;28;20170;-79
2023/01/28 02:30:44;;;;;;;6.70;5.13;;;0.80;99.90;;;;;;5032251;28;20210;-79
2023/01/28 02:33:29;;;;;;;6.30;5.03;;;0.80;99.90;;;;;;5034280;28;20177;-79
2023/01/28 02:35:55;;;;;;;7.77;5.30;;;0.80;99.90;;;;;;5033851;28;20174;-79
2023/01/28 02:38:40;;;;;;;7.20;5.33;;;0.70;99.90;;;;;;5035294;28;20171;-79
2023/01/28 02:41:20;;;;;;;7.23;5.40;;;0.70;99.90;;;;;;5065162;22;20225;-90
2023/01/28 02:43:46;;;;;;;7.53;5.50;;;0.70;99.90;;;;;;5053853;28;20174;-90
2023/01/28 02:49:39;;;;;;;7.33;5.73;;;0.70;99.90;;;;;;5055156;28;20172;-88
2023/01/28 02:52:08;;;;;;;7.50;5.60;;;0.70;99.90;;;;;;5054778;28;20223;-90
2023/01/28 02:54:43;;;;;;;8.63;6.17;;;0.80;99.90;;;;;;5053480;28;20177;-89
2023/01/28 02:57:32;;;;;;;6.87;5.60;;;0.70;99.90;;;;;;5053423;28;20173;-89
2023/01/28 03:00:10;;;;;;;7.07;5.50;;;0.80;99.90;;;;;;5044034;28;20212;-90
2023/01/28 03:03:05;;;;;;;9.27;6.07;;;0.80;99.90;;;;;;5054624;28;20260;-90
2023/01/28 03:06:05;;;;;;;8.53;5.67;;;0.60;99.90;;;;;;5053988;28;20656;-90
2023/01/28 03:36:49;;;;;;;8.93;6.17;;;0.60;99.90;;;;;;5054160;28;20180;-90
2023/01/28 03:39:17;;;;;;;9.17;6.07;;;0.60;99.90;;;;;;5053857;28;20169;-88
2023/01/28 03:41:54;;;;;;;9.30;5.83;;;0.60;99.90;;;;;;5053287;28;20185;-90
2023/01/28 03:47:06;;;;;;;10.37;6.40;;;0.60;99.90;;;;;;5054065;28;20188;-90
2023/01/28 03:49:31;;;;;;;8.50;5.77;;;0.60;99.90;;;;;;5052458;28;20232;-89
2023/01/28 03:51:57;;;;;;;9.33;6.10;;;0.60;99.90;;;;;;5052242;28;20177;-90
2023/01/28 03:54:22;;;;;;;10.07;5.97;;;0.60;99.90;;;;;;5052289;28;20556;-90
2023/01/28 03:56:48;;;;;;;8.87;5.77;;;0.60;99.90;;;;;;5053547;28;20177;-90
2023/01/28 03:59:14;;;;;;;7.30;5.30;;;0.60;99.90;;;;;;5052040;28;20169;-89
2023/01/28 04:01:39;;;;;;;8.17;5.47;;;0.60;99.90;;;;;;5052290;28;20271;-89
2023/01/28 04:04:05;;;;;;;7.77;5.73;;;0.60;99.90;;;;;;5052452;28;20177;-90
2023/01/28 04:06:31;;;;;;;8.73;5.83;;;0.60;99.90;;;;;;5052033;28;20198;-90
2023/01/28 04:08:58;;;;;;;10.30;5.33;;;0.60;99.90;;;;;;5052148;28;20559;-90
2023/01/28 04:11:25;;;;;;;5.30;4.30;;;0.60;99.90;;;;;;5053046;28;20189;-90
2023/01/28 04:13:51;;;;;;;6.57;4.80;;;0.60;99.90;;;;;;5051913;28;20174;-90
2023/01/28 04:16:18;;;;;;;5.50;4.30;;;0.60;99.90;;;;;;5051872;28;20170;-90
2023/01/28 04:18:44;;;;;;;6.57;4.00;;;0.60;99.90;;;;;;5051805;28;20195;-89
2023/01/28 04:21:11;;;;;;;5.87;4.07;;;0.60;99.90;;;;;;5051811;28;20196;-89
2023/01/28 04:23:37;;;;;;;7.17;4.60;;;0.60;99.90;;;;;;5051826;28;20177;-90
2023/01/28 04:26:03;;;;;;;7.07;4.40;;;0.60;99.90;;;;;;5052935;28;20204;-90
2023/01/28 04:28:28;;;;;;;6.30;4.00;;;0.60;99.90;;;;;;5053112;28;20180;-90
2023/01/28 04:30:54;;;;;;;7.70;4.50;;;0.60;99.90;;;;;;5051421;28;20215;-90
2023/01/28 04:33:20;;;;;;;7.40;4.37;;;0.60;99.90;;;;;;5051805;28;20227;-90
2023/01/28 04:35:46;;;;;;;5.97;4.13;;;0.60;99.90;;;;;;5051620;28;20180;-90
2023/01/28 04:38:12;;;;;;;5.90;4.20;;;0.60;99.90;;;;;;5052750;28;20185;-90
2023/01/28 04:40:37;;;;;;;6.73;3.93;;;0.60;99.90;;;;;;5052190;28;20641;-90
2023/01/28 04:43:03;;;;;;;6.23;4.03;;;0.60;99.90;;;;;;5052998;28;20180;-90
2023/01/28 04:45:29;;;;;;;6.33;3.97;;;0.60;99.90;;;;;;5051279;28;20205;-90
2023/01/28 04:47:55;;;;;;;7.23;4.00;;;0.60;99.90;;;;;;5051404;28;20173;-90
2023/01/28 04:50:21;;;;;;;5.33;3.73;;;0.60;99.90;;;;;;5051109;28;20569;-89
2023/01/28 04:52:46;;;;;;;5.77;4.10;;;0.60;99.90;;;;;;5050649;28;20650;-90
2023/01/28 04:55:12;;;;;;;4.67;3.80;;;0.60;99.90;;;;;;5051470;28;20186;-90
2023/01/28 04:57:37;;;;;;;6.17;3.70;;;0.50;99.90;;;;;;5051452;28;20173;-90
2023/01/28 05:00:04;;;;;;;5.60;3.93;;;0.50;99.90;;;;;;5050829;28;20221;-89
2023/01/28 05:02:30;;;;;;;8.20;4.13;;;0.60;99.90;;;;;;5052381;28;20702;-90
2023/01/28 05:04:55;;;;;;;5.77;3.77;;;0.60;99.90;;;;;;5052184;28;20714;-90
2023/01/28 05:07:21;;;;;;;4.40;3.80;;;0.60;99.90;;;;;;5050947;28;20181;-90
2023/01/28 05:09:47;;;;;;;6.67;3.77;;;0.50;99.90;;;;;;5050689;28;20197;-89
2023/01/28 05:12:12;;;;;;;4.47;3.67;;;0.60;99.90;;;;;;5051282;28;20181;-90
2023/01/28 05:14:38;;;;;;;5.17;3.57;;;0.50;99.90;;;;;;5052218;28;20178;-90
2023/01/28 05:17:03;;;;;;;5.03;3.20;;;0.50;99.90;;;;;;5050935;28;20177;-91
2023/01/28 05:19:29;;;;;;;4.40;3.33;;;0.50;99.90;;;;;;5050778;28;20316;-90
2023/01/28 05:21:54;;;;;;;5.53;3.57;;;0.50;99.90;;;;;;5050596;28;20261;-90
2023/01/28 05:24:20;;;;;;;3.97;2.97;;;0.50;99.90;;;;;;5050651;28;20201;-89
2023/01/28 05:26:46;;;;;;;3.70;2.27;;;0.50;99.90;;;;;;5052235;28;20173;-90
2023/01/28 05:29:12;;;;;;;3.90;2.80;;;0.50;99.90;;;;;;5050621;28;20324;-90
2023/01/28 05:31:37;;;;;;;3.87;2.70;;;0.50;99.90;;;;;;5050629;28;20280;-90
2023/01/28 05:34:03;;;;;;;3.63;2.73;;;0.50;99.90;;;;;;5051913;28;20618;-90
2023/01/28 05:36:28;;;;;;;3.93;2.43;;;0.40;99.90;;;;;;5050556;28;20174;-89
2023/01/28 05:38:54;;;;;;;3.40;2.43;;;0.40;99.90;;;;;;5050711;28;20178;-90
2023/01/28 05:41:20;;;;;;;3.33;2.60;;;0.40;99.90;;;;;;5050239;28;20209;-89
2023/01/28 05:43:45;;;;;;;3.10;2.30;;;0.50;99.90;;;;;;5051909;28;20212;-89
2023/01/28 05:46:11;;;;;;;4.30;2.73;;;0.50;99.90;;;;;;5050890;28;20213;-90
2023/01/28 05:48:36;;;;;;;5.13;2.53;;;0.50;99.90;;;;;;5051785;28;20268;-89
2023/01/28 05:51:04;;;;;;;4.70;3.10;;;0.50;99.90;;;;;;5050293;28;20204;-90
2023/01/28 05:53:30;;;;;;;4.47;2.87;;;0.50;99.90;;;;;;5051932;28;20178;-90
2023/01/28 05:55:55;;;;;;;3.57;2.60;;;0.50;99.90;;;;;;5050475;28;20188;-90
2023/01/28 05:58:21;;;;;;;3.73;2.77;;;0.50;99.90;;;;;;5050635;28;20234;-89
2023/01/28 06:00:47;;;;;;;4.83;3.30;;;0.40;99.90;;;;;;5050217;28;20212;-90
2023/01/28 06:03:12;;;;;;;4.90;2.50;;;0.40;99.90;;;;;;5050417;28;20275;-90
2023/01/28 06:05:38;;;;;;;3.30;2.77;;;0.40;99.90;;;;;;5054214;28;20216;-89
2023/01/28 06:08:04;;;;;;;3.30;2.63;;;0.40;99.90;;;;;;5055743;28;20172;-84
2023/01/28 06:10:30;;;;;;;6.10;3.27;;;0.30;99.90;;;;;;5054452;28;20196;-82
2023/01/28 06:12:56;;;;;;;3.27;2.90;;;0.30;99.90;;;;;;5055644;28;20172;-84
2023/01/28 06:15:22;;;;;;;4.07;2.90;;;0.30;99.90;;;;;;5054219;28;20188;-84
2023/01/28 06:17:47;;;;;;;3.93;2.90;;;0.30;99.90;;;;;;5055465;28;20264;-84
2023/01/28 06:20:13;;;;;;;2.60;2.40;;;0.40;99.90;;;;;;5054055;28;20197;-84
2023/01/28 06:22:39;;;;;;;3.13;2.50;;;0.30;99.90;;;;;;5055737;28;20185;-84
2023/01/28 06:25:05;;;;;;;3.70;2.60;;;0.30;99.90;;;;;;5055354;28;20204;-84
2023/01/28 06:27:30;;;;;;;3.77;2.63;;;0.30;99.90;;;;;;5053979;28;20177;-83
2023/01/28 06:29:56;;;;;;;3.90;2.80;;;0.30;99.90;;;;;;5053864;28;20683;-83
2023/01/28 06:32:21;;;;;;;5.90;3.00;;;0.30;99.90;;;;;;5053934;28;20272;-83
2023/01/28 06:34:47;;;;;;;4.13;2.87;;;0.30;99.90;;;;;;5053794;28;20173;-84
2023/01/28 06:37:14;;;;;;;3.87;3.03;;;0.30;99.90;;;;;;5055288;28;20181;-84
2023/01/28 06:39:39;;;;;;;3.60;2.63;;;0.30;99.90;;;;;;5054790;28;20287;-84
2023/01/28 06:42:05;;;;;;;3.47;3.03;;;0.30;99.90;;;;;;5054919;28;20209;-85
2023/01/28 06:44:30;;;;;;;3.90;2.80;;;0.30;99.90;;;;;;5053991;28;20228;-83
2023/01/28 06:46:56;;;;;;;4.03;2.90;;;0.30;99.90;;;;;;5054032;28;20196;-84
2023/01/28 06:49:21;;;;;;;4.63;3.30;;;0.30;99.90;;;;;;5053821;28;20185;-84
2023/01/28 06:51:47;;;;;;;3.03;2.40;;;0.30;99.90;;;;;;5053844;28;20169;-85
2023/01/28 06:54:13;;;;;;;3.53;2.60;;;0.30;99.90;;;;;;5054865;28;20223;-84
2023/01/28 06:56:38;;;;;;;5.00;2.50;;;0.30;99.90;;;;;;5053526;28;20738;-83
2023/01/28 06:59:04;;;;;;;2.70;2.20;;;0.30;99.90;;;;;;5054576;28;20729;-83
2023/01/28 07:01:30;;;;;;;3.17;2.80;;;0.30;99.90;;;;;;5053466;28;20196;-83
2023/01/28 07:03:56;;;;;;;2.97;2.50;;;0.20;99.90;;;;;;5053619;28;20178;-85
2023/01/28 07:06:21;;;;;;;3.33;2.67;;;0.20;99.90;;;;;;5054385;28;20224;-83
2023/01/28 07:08:47;;;;;;;5.30;2.80;;;0.30;99.90;;;;;;5053253;28;20204;-83
2023/01/28 07:11:14;;;;;;;3.73;2.53;;;0.30;99.90;;;;;;5054252;28;20207;-83
2023/01/28 07:13:40;;;;;;;4.30;2.90;;;0.20;99.90;;;;;;5054330;28;20176;-83
2023/01/28 07:16:06;;;;;;;3.93;2.53;;;0.20;99.90;;;;;;5053580;28;20553;-83
2023/01/28 07:18:32;;;;;;;6.13;3.10;;;0.20;99.90;;;;;;5054461;28;20205;-83
2023/01/28 07:20:58;;;;;;;4.67;3.10;;;0.20;99.90;;;;;;5054218;28;20229;-83
2023/01/28 07:23:23;;;;;;;3.87;2.80;;;0.20;99.90;;;;;;5053167;28;20703;-84
2023/01/28 07:25:49;;;;;;;3.77;2.63;;;0.20;99.90;;;;;;5052996;28;20223;-83
2023/01/28 07:28:20;;;;;;;3.73;3.20;;;0.20;99.90;;;;;;5052922;28;20535;-84
2023/01/28 07:30:47;;;;;;;5.30;3.10;;;0.20;99.90;;;;;;5052649;28;20664;-83
2023/01/28 07:33:13;;;;;;;4.00;3.00;;;0.20;99.90;;;;;;5052984;28;20180;-83
2023/01/28 07:35:38;;;;;;;3.50;2.70;;;0.20;99.90;;;;;;5053041;28;20182;-83
2023/01/28 07:38:04;;;;;;;3.60;2.70;;;0.20;99.90;;;;;;5054106;28;20181;-83
2023/01/28 07:40:30;;;;;;;3.53;2.90;;;0.10;99.90;;;;;;5053502;28;20220;-84
2023/01/28 07:42:55;;;;;;;3.77;2.80;;;0.10;99.90;;;;;;5052856;28;20210;-85
2023/01/28 07:45:23;;;;;;;3.27;2.90;;;0.10;99.90;;;;;;5052483;28;20234;-83
2023/01/28 07:47:57;;;;;;;4.70;3.13;;;0.10;99.90;;;;;;5052666;28;20230;-83
2023/01/28 07:50:23;;;;;;;3.53;3.23;;;0.20;99.90;;;;;;5052393;28;20196;-83
2023/01/28 07:52:49;;;;;;;3.40;2.90;;;0.10;99.90;;;;;;5052609;28;20195;-83
2023/01/28 07:55:15;;;;;;;3.43;2.60;;;0.10;99.90;;;;;;5053698;28;20174;-83
2023/01/28 07:58:07;;;;;;;3.33;2.70;;;0.10;99.90;;;;;;5052674;28;20256;-83
2023/01/28 08:00:34;;;;;;;3.87;2.63;;;0.10;99.90;;;;;;5052118;28;20267;-83
2023/01/28 08:03:03;;;;;;;3.37;2.70;;;0.10;99.90;;;;;;5052457;28;20207;-83
2023/01/28 08:05:39;;;;;;;3.80;2.47;;;0.20;99.90;;;;;;5053370;28;20201;-83
2023/01/28 08:08:05;;;;;;;3.40;2.77;;;0.20;99.90;;;;;;5052574;28;20223;-84
2023/01/28 08:10:31;;;;;;;2.87;2.60;;;0.10;99.90;;;;;;5051964;28;20217;-83
2023/01/28 08:12:57;;;;;;;2.97;2.30;;;0.10;99.90;;;;;;5053517;28;20582;-84
2023/01/28 08:15:24;;;;;;;4.17;2.80;;;0.20;99.90;;;;;;5053266;28;20180;-83
2023/01/28 08:17:52;;;;;;;3.13;2.80;;;0.20;99.90;;;;;;5052225;28;20174;-83
2023/01/28 08:20:18;;;;;;;4.00;3.00;;;0.10;99.90;;;;;;5054345;28;20196;-83
2023/01/28 08:22:43;;;;;;;4.13;2.90;;;0.20;99.90;;;;;;5052151;28;20177;-83
2023/01/28 08:25:09;;;;;;;3.23;2.60;;;0.20;99.90;;;;;;5051965;28;20226;-85
2023/01/28 08:27:35;;;;;;;3.80;2.93;;;0.20;99.90;;;;;;5053140;28;20176;-83
2023/01/28 08:30:00;;;;;;;3.27;2.77;;;0.30;99.90;;;;;;5052838;28;20189;-83
2023/01/28 08:32:28;;;;;;;3.43;2.37;;;0.30;99.90;;;;;;5051774;28;20617;-83
2023/01/28 08:34:53;;;;;;;3.63;2.70;;;0.30;99.90;;;;;;5051674;28;20177;-84
2023/01/28 08:37:19;;;;;;;3.73;2.63;;;0.20;99.90;;;;;;5051763;28;20173;-83
2023/01/28 08:39:44;;;;;;;3.13;2.63;;;0.20;99.90;;;;;;5109053;22;20199;-83
2023/01/28 08:42:10;;;;;;;5.43;3.07;;;0.10;99.90;;;;;;5054022;28;20185;-83
2023/01/28 08:44:36;;;;;;;6.37;2.90;;;0.20;99.90;;;;;;5052863;28;20286;-82
2023/01/28 08:47:01;;;;;;;3.17;2.60;;;0.20;99.90;;;;;;5053388;28;20170;-83
2023/01/28 08:49:27;;;;;;;4.40;2.97;;;0.20;99.90;;;;;;5053467;28;20552;-83
2023/01/28 08:51:54;;;;;;;3.10;2.70;;;0.20;99.90;;;;;;5053217;28;20181;-84
2023/01/28 08:54:20;;;;;;;3.53;3.00;;;0.20;99.90;;;;;;5054629;28;20177;-83
2023/01/28 08:56:47;;;;;;;3.07;2.50;;;0.30;99.90;;;;;;5053863;28;20170;-84
2023/01/28 08:59:13;;;;;;;3.50;2.60;;;0.30;99.90;;;;;;5053025;28;20193;-83
2023/01/28 09:01:39;;;;;;;4.37;2.80;;;0.30;99.90;;;;;;5053148;28;20205;-85
2023/01/28 09:04:04;;;;;;;4.07;2.70;;;0.30;99.90;;;;;;5054806;28;20620;-83
2023/01/28 09:06:31;;;;;;;3.37;2.97;;;0.30;99.90;;;;;;5054798;28;20236;-83
2023/01/28 09:08:58;;;;;;;3.43;2.83;;;0.40;99.90;;;;;;5057749;28;20184;-83
2023/01/28 09:11:23;;;;;;;3.40;2.80;;;0.40;99.90;;;;;;5052469;28;20197;-83
2023/01/28 09:13:49;;;;;;;3.00;2.30;;;0.40;99.90;;;;;;5052361;28;20235;-84
2023/01/28 09:16:15;;;;;;;4.23;2.73;;;0.50;99.90;;;;;;5052943;28;20264;-82
2023/01/28 09:18:40;;;;;;;3.53;2.47;;;0.40;99.90;;;;;;5051282;28;20174;-83
2023/01/28 09:21:07;;;;;;;3.30;2.60;;;0.40;99.90;;;;;;5052248;28;20270;-83
2023/01/28 09:23:36;;;;;;;4.53;2.40;;;0.40;99.90;;;;;;5051174;28;20173;-83
2023/01/28 09:26:03;;;;;;;3.87;2.33;;;0.40;99.90;;;;;;5052452;28;20304;-85
2023/01/28 09:28:30;;;;;;;2.93;2.37;;;0.30;99.90;;;;;;5052491;28;20176;-83
2023/01/28 09:31:10;;;;;;;3.33;2.30;;;0.40;99.90;;;;;;5053189;28;20192;-83
2023/01/28 09:33:37;;;;;;;2.83;2.40;;;0.40;99.90;;;;;;5051449;28;20177;-83
2023/01/28 09:36:05;;;;;;;2.90;2.60;;;0.50;99.90;;;;;;5053098;28;20300;-83
2023/01/28 09:38:31;;;;;;;2.43;2.23;;;0.50;99.90;;;;;;5051930;28;20227;-83
2023/01/28 09:40:57;;;;;;;3.77;2.70;;;0.50;99.90;;;;;;5052165;28;20243;-83
2023/01/28 09:43:53;;;;;;;4.80;2.47;;;0.40;99.90;;;;;;5051032;28;20585;-82
2023/01/28 09:46:18;;;;;;;2.93;2.23;;;0.30;99.90;;;;;;5051387;28;20236;-86
2023/01/28 09:48:48;;;;;;;2.43;2.20;;;0.40;99.90;;;;;;5050995;28;20168;-82
2023/01/28 09:51:29;;;;;;;4.23;2.33;;;0.50;99.90;;;;;;5050647;28;20224;-82
2023/01/28 09:54:00;;;;;;;3.07;2.30;;;0.50;99.90;;;;;;5050929;28;20173;-84
2023/01/28 09:56:38;;;;;;;3.57;2.60;;;0.30;99.90;;;;;;5050931;28;20263;-83
2023/01/28 09:59:19;;;;;;;2.70;2.40;;;0.40;99.90;;;;;;5052150;28;20227;-83
2023/01/28 10:01:55;;;;;;;3.67;2.40;;;0.40;99.90;;;;;;5051993;28;20203;-82
2023/01/28 10:04:26;;;;;;;3.13;2.43;;;0.40;99.90;;;;;;5050798;28;20203;-86
2023/01/28 10:07:00;;;;;;;2.50;2.00;;;0.40;99.90;;;;;;5050909;28;20181;-82
2023/01/28 10:09:43;;;;;;;2.70;2.10;;;0.40;99.90;;;;;;5050557;28;20166;-82
2023/01/28 10:12:12;;;;;;;2.80;2.40;;;0.30;99.90;;;;;;5052352;28;20174;-82
2023/01/28 10:15:09;;;;;;;3.60;2.40;;;0.40;99.90;;;;;;5051905;28;20175;-85
2023/01/28 10:17:49;;;;;;;3.00;2.37;;;0.50;99.90;;;;;;5051012;28;20259;-83
2023/01/28 10:20:29;;;;;;;2.43;2.00;;;0.60;99.90;;;;;;5050967;28;20247;-83
2023/01/28 10:22:59;;;;;;;3.27;2.50;;;0.60;99.90;;;;;;5052095;28;20177;-83
2023/01/28 10:25:28;;;;;;;2.50;2.30;;;0.70;99.90;;;;;;5051975;28;20206;-83
2023/01/28 10:27:54;;;;;;;3.30;2.30;;;0.60;99.90;;;;;;5052208;28;20165;-83
2023/01/28 10:30:25;;;;;;;3.23;2.40;;;0.60;99.90;;;;;;5050488;28;20288;-83
2023/01/28 10:33:17;;;;;;;3.40;2.60;;;0.60;99.90;;;;;;5052194;28;20177;-82
2023/01/28 10:35:42;;;;;;;3.43;2.27;;;0.60;99.90;;;;;;5050955;28;20251;-86
2023/01/28 10:38:13;;;;;;;2.93;2.37;;;0.70;99.90;;;;;;5050868;28;20332;-82
2023/01/28 10:40:46;;;;;;;3.93;2.50;;;0.70;99.90;;;;;;5051698;28;20216;-86
2023/01/28 10:43:14;;;;;;;3.63;2.43;;;0.70;99.90;;;;;;5052252;28;20590;-82
2023/01/28 10:45:56;;;;;;;2.97;2.30;;;0.50;99.90;;;;;;5052538;28;20216;-82
2023/01/28 10:48:41;;;;;;;2.50;2.30;;;0.40;99.90;;;;;;5052217;28;20252;-83
2023/01/28 10:51:07;;;;;;;4.80;2.53;;;0.50;99.90;;;;;;5053348;28;20200;-84
2023/01/28 10:53:51;;;;;;;2.43;2.23;;;0.50;99.90;;;;;;5055999;28;20177;-82
2023/01/28 10:56:24;;;;;;;3.00;2.70;;;0.60;99.90;;;;;;5054698;28;20178;-82
2023/01/28 10:59:03;;;;;;;3.43;2.60;;;0.70;99.90;;;;;;5054469;28;20185;-83
2023/01/28 11:01:40;;;;;;;3.33;2.97;;;0.80;99.90;;;;;;5054171;28;20208;-83
2023/01/28 11:04:17;;;;;;;3.73;2.63;;;0.90;99.90;;;;;;5054633;28;20204;-83
2023/01/28 11:06:51;;;;;;;3.20;2.90;;;0.80;99.90;;;;;;5055764;28;20227;-83
2023/01/28 11:09:27;;;;;;;3.77;2.70;;;0.80;99.90;;;;;;5054368;28;20279;-83
2023/01/28 11:11:53;;;;;;;2.50;2.23;;;0.80;99.90;;;;;;5054534;28;20189;-83
2023/01/28 11:14:20;;;;;;;2.50;2.20;;;0.80;99.90;;;;;;5054800;28;20254;-82
2023/01/28 11:16:47;;;;;;;3.23;2.83;;;0.80;99.90;;;;;;5054592;28;20193;-84
2023/01/28 11:19:13;;;;;;;3.47;2.80;;;0.80;99.90;;;;;;5054974;28;20177;-82
2023/01/28 11:21:38;;;;;;;3.27;2.53;;;0.90;99.90;;;;;;5054536;28;20220;-83
2023/01/28 11:24:19;;;;;;;3.57;2.73;;;0.90;99.90;;;;;;5054364;28;20208;-82
2023/01/28 11:26:48;;;;;;;3.03;2.73;;;0.90;99.90;;;;;;5054710;28;20259;-84
2023/01/28 11:29:25;;;;;;;3.20;2.83;;;1.00;99.90;;;;;;5055620;28;20213;-83
2023/01/28 11:31:51;;;;;;;3.40;2.40;;;1.00;99.90;;;;;;5055731;28;20250;-85
2023/01/28 11:34:18;;;;;;;3.10;2.47;;;0.90;99.90;;;;;;5056128;28;20194;-83
2023/01/28 11:37:02;;;;;;;3.40;2.60;;;0.70;99.90;;;;;;5054907;28;20180;-83
2023/01/28 11:39:28;;;;;;;3.20;2.90;;;0.70;99.90;;;;;;5055771;28;20177;-83
2023/01/28 11:42:01;;;;;;;3.70;2.53;;;0.70;99.90;;;;;;5055996;28;20232;-84
2023/01/28 11:44:27;;;;;;;4.07;2.93;;;0.80;99.90;;;;;;5055636;28;20184;-85
2023/01/28 11:47:19;;;;;;;3.00;2.70;;;0.90;99.90;;;;;;5053919;28;20206;-83
2023/01/28 11:50:17;;;;;;;3.73;3.00;;;0.90;99.90;;;;;;5047898;28;20720;-82
2023/01/28 11:53:13;;;;;;;3.07;2.60;;;0.90;99.90;;;;;;5052867;28;20643;-83
2023/01/28 11:56:12;;;;;;;4.10;2.70;;;0.90;99.90;;;;;;5053882;28;20186;-82
2023/01/28 11:59:01;;;;;;;3.83;2.77;;;0.90;99.90;;;;;;5053928;28;20184;-86
2023/01/28 12:01:43;;;;;;;3.43;2.63;;;0.90;99.90;;;;;;5053612;28;20221;-83
2023/01/28 12:04:21;;;;;;;4.07;2.70;;;0.90;99.90;;;;;;5053953;28;20178;-82
2023/01/28 12:07:06;;;;;;;3.37;2.93;;;0.90;99.90;;;;;;5052531;28;20208;-82
2023/01/28 12:09:48;;;;;;;2.77;2.57;;;0.90;99.90;;;;;;5052289;28;20166;-82
2023/01/28 12:12:40;;;;;;;2.87;2.57;;;0.80;99.90;;;;;;5052244;28;20177;-82
2023/01/28 12:15:31;;;;;;;3.17;2.40;;;0.70;99.90;;;;;;5053711;28;20193;-82
2023/01/28 12:18:25;;;;;;;3.80;2.60;;;0.80;99.90;;;;;;5052328;28;20174;-84
2023/01/28 12:21:00;;;;;;;2.43;2.23;;;0.90;99.90;;;;;;5053310;28;20189;-83
2023/01/28 12:23:44;;;;;;;2.80;2.50;;;0.90;99.90;;;;;;5052251;28;20585;-82
2023/01/28 12:26:18;;;;;;;4.20;2.77;;;0.90;99.90;;;;;;5052069;28;20255;-82
2023/01/28 12:29:12;;;;;;;4.53;2.67;;;0.90;99.90;;;;;;5052102;28;20208;-82
2023/01/28 12:31:59;;;;;;;3.50;2.60;;;1.00;99.90;;;;;;5053150;28;20192;-82
2023/01/28 12:34:48;;;;;;;3.83;2.70;;;1.00;99.90;;;;;;5051917;28;20165;-82
2023/01/28 12:37:38;;;;;;;3.50;2.90;;;1.00;99.90;;;;;;5053164;28;20544;-84
2023/01/28 12:40:30;;;;;;;2.87;2.60;;;1.00;99.90;;;;;;5051585;28;20197;-82
2023/01/28 12:43:04;;;;;;;5.53;2.50;;;1.10;99.90;;;;;;5052981;28;20541;-83
2023/01/28 12:45:44;;;;;;;2.77;2.37;;;1.00;99.90;;;;;;5053329;28;20200;-83
2023/01/28 12:48:23;;;;;;;3.40;2.53;;;0.90;99.90;;;;;;5053319;28;20204;-82
2023/01/28 12:50:56;;;;;;;4.37;2.70;;;0.90;99.90;;;;;;5051692;28;20197;-82
2023/01/28 12:53:39;;;;;;;3.23;2.60;;;1.00;99.90;;;;;;5051973;28;20173;-82
2023/01/28 12:56:08;;;;;;;4.40;2.47;;;0.90;99.90;;;;;;5053144;28;20181;-82
2023/01/28 12:59:01;;;;;;;2.93;2.63;;;0.90;99.90;;;;;;5053233;28;20249;-83
2023/01/28 13:01:54;;;;;;;3.60;2.30;;;0.90;99.90;;;;;;5051768;28;20221;-82
2023/01/28 13:04:44;;;;;;;2.80;2.37;;;0.90;99.90;;;;;;5047356;28;20296;-83
2023/01/28 13:07:20;;;;;;;3.07;2.53;;;0.90;99.90;;;;;;5051793;28;20185;-82
2023/01/28 13:09:53;;;;;;;3.20;2.33;;;0.80;99.90;;;;;;5051317;28;20235;-83
2023/01/28 13:12:21;;;;;;;2.53;2.20;;;0.80;99.90;;;;;;5051958;28;20243;-83
2023/01/28 13:14:48;;;;;;;3.37;2.40;;;0.80;99.90;;;;;;5050975;28;20185;-86
2023/01/28 13:17:29;;;;;;;2.23;2.03;;;0.80;99.90;;;;;;5053033;28;20184;-83
2023/01/28 13:19:55;;;;;;;2.73;2.30;;;0.80;99.90;;;;;;5052587;28;20197;-82
2023/01/28 13:22:36;;;;;;;4.03;2.40;;;0.90;99.90;;;;;;5051823;28;20287;-87
2023/01/28 13:25:24;;;;;;;3.23;2.40;;;0.90;99.90;;;;;;5051501;28;20254;-88
2023/01/28 13:28:00;;;;;;;4.03;2.83;;;0.80;99.90;;;;;;5053135;28;20214;-86
2023/01/28 13:30:48;;;;;;;3.37;2.63;;;0.90;99.90;;;;;;5052580;28;20276;-82
2023/01/28 13:33:32;;;;;;;4.70;2.73;;;0.80;99.90;;;;;;5051767;28;20242;-82
2023/01/28 13:36:05;;;;;;;3.27;2.70;;;1.30;99.90;;;;;;5053140;28;20177;-83
2023/01/28 13:38:32;;;;;;;4.43;3.00;;;1.30;99.90;;;;;;5051547;28;20177;-83
2023/01/28 13:41:00;;;;;;;3.97;3.20;;;1.20;99.90;;;;;;5052603;28;20614;-82
2023/01/28 13:43:31;;;;;;;4.13;3.00;;;1.10;99.90;;;;;;5053674;28;20174;-82
2023/01/28 13:46:00;;;;;;;6.37;3.17;;;0.80;99.90;;;;;;5051756;28;20216;-83
2023/01/28 13:48:37;;;;;;;3.67;3.10;;;0.80;99.90;;;;;;5052169;28;20179;-83
2023/01/28 13:51:08;;;;;;;4.30;3.40;;;0.70;99.90;;;;;;5052559;28;20293;-83